Tuesday, November 21, 2017, 10:51 AM EST
Back to Local

KCON, Concord, Concord Municipal Airport

Location: Concord, NH, United States Lat: 43.195
Local Time: 10:51 AM EST (15:51 GMT) Lon: -71.501
Time Zone: US/Eastern Elev: 344 ft

Show me the last for .
Show Decoded

2017-11-21 09:51 METAR KCON 211451Z AUTO 16008KT 10SM CLR 03/M02 A3005 RMK AO2 SLP178 T00331022
                 58005 =
2017-11-21 08:51 METAR KCON 211351Z AUTO 16006KT 10SM CLR 01/M02 A3007 RMK AO2 SLP186 T00111022 =
2017-11-21 07:51 METAR KCON 211251Z AUTO 13004KT 10SM CLR M02/M03 A3007 RMK AO2 SLP185 T10171033
                 =
2017-11-21 06:51 METAR KCON 211151Z AUTO 00000KT 10SM CLR M03/M06 A3006 RMK AO2 SLP185 T10331056
                 10022 21039 53008 =
2017-11-21 05:51 METAR KCON 211051Z AUTO 00000KT 10SM CLR M03/M05 A3006 RMK AO2 SLP182 T10281050
                 =
2017-11-21 04:51 METAR KCON 210951Z AUTO 00000KT 10SM CLR M03/M05 A3004 RMK AO2 SLP177 T10331050
                 =
2017-11-21 03:51 METAR KCON 210851Z AUTO 00000KT 10SM CLR M01/M03 A3004 RMK AO2 SLP176 T10061033
                 50001 =
2017-11-21 02:51 METAR KCON 210751Z AUTO 13004KT 10SM CLR 01/M02 A3004 RMK AO2 SLP176 T00111022 =
2017-11-21 01:51 METAR KCON 210651Z AUTO 16003KT 10SM OVC045 02/M02 A3004 RMK AO2 SLP177
                 T00221022 =
2017-11-21 00:51 METAR KCON 210551Z AUTO 00000KT 10SM BKN033 OVC049 01/M03 A3003 RMK AO2 SLP174
                 T00061028 10033 20000 51012 =
2017-11-20 23:51 METAR KCON 210451Z AUTO 00000KT 10SM SCT037 OVC050 01/M03 A3002 RMK AO2 SLP171
                 T00061033 400441006 =
2017-11-20 22:51 METAR KCON 210351Z AUTO 00000KT 10SM SCT041 OVC055 01/M03 A3001 RMK AO2 SLP167
                 T00061033 =
2017-11-20 21:51 METAR KCON 210251Z AUTO 00000KT 10SM OVC042 01/M03 A3000 RMK AO2 SLP162
                 T00111033 51021 =
2017-11-20 20:51 METAR KCON 210151Z AUTO 34004KT 10SM BKN043 OVC050 01/M04 A2998 RMK AO2 SLP156
                 T00111039 =
2017-11-20 19:51 METAR KCON 210051Z AUTO 32007KT 10SM OVC045 03/M05 A2996 RMK AO2 SLP150
                 T00281050 =
2017-11-20 18:51 METAR KCON 202351Z AUTO 27007KT 10SM OVC060 03/M06 A2994 RMK AO2 SLP140
                 T00281056 10044 20022 53021 =
2017-11-20 17:51 METAR KCON 202251Z AUTO 25007KT 10SM OVC065 02/M06 A2991 RMK AO2 SLP132
                 T00221061 =
2017-11-20 16:51 METAR KCON 202151Z AUTO 25008KT 10SM OVC060 03/M06 A2989 RMK AO2 SLP125
                 T00281061 =
2017-11-20 15:51 METAR KCON 202051Z AUTO 26009KT 10SM OVC060 03/M06 A2987 RMK AO2 PK WND
                 28027/1957 SLP120 T00281061 53009 =
2017-11-20 14:51 METAR KCON 201951Z AUTO 26016G26KT 10SM OVC060 03/M08 A2985 RMK AO2 PK WND
                 27026/1947 SLP112 T00331078 =
2017-11-20 13:51 METAR KCON 201851Z AUTO 26008G24KT 10SM FEW065 04/M09 A2983 RMK AO2 PK WND
                 29027/1836 SLP106 T00391089 =
2017-11-20 12:51 METAR KCON 201751Z AUTO 29016G25KT 10SM FEW055 03/M09 A2985 RMK AO2 PK WND
                 27029/1736 SLP110 T00281094 10039 21006 58001 =
2017-11-20 11:51 METAR KCON 201651Z AUTO 27015G25KT 10SM BKN060 BKN075 02/M10 A2985 RMK AO2
                 SLP110 T00171100 =

Support USWX by starting your Amazon purchase here.